Timeline UpdatesTrip UpdatesNews PostsPvt PostsTravel TipsAdmin PostsConv PostsFollowed PostsChat RequestsBlog PostsPNR Posts

Disclaimer
Search
 
 
Tue Sep 30, 2014 23:23:46 ISTHomeTrainsΣChainsAtlasPNRForumGalleryNewsFAQTripsMembersLoginFeedback
No Recent News for this Train
Other Trains in the News **new
Latest...
From 11.09.2013 to 9.11.2013........19024 Firozpur Janata Express will be terminated at Dadar.
Thu Sep 05, 2013 (07:07PM)
⇐ Return Journey: Train# 19023

19024/Firozpur - Mumbai Central Janta Express

Time-Table HAS CHANGED.
Sep 03 (12:50PM)
Change Departure Station:
Change Arrival Station:
Post a Train Travel TipPost a Train Travel Tip **new
Post a Comment/Question/Picture/VideoPost a Comment/Question/Picture/Video
Inaugural Run
Mon Oct 01, 1956
Pantry/Catering
✕ NO Pantry Car
✓ Catering Avbl
Catering from local vendors
RSA - Rake Sharing
Dedicated Rake.No RSA
Rake/Coach Composition
LOCO<SLR,GS,GS(MST),GS,S-1, S-2, S-3, S-4, S-5, S-6, S-7, S-8,GS,SLR,HCPV=14+1
Loco
TKD WDP-4/4B between FZR-NDLS, GZB WAP5 between NDLS-BCT
News    PNR    Forum    Time-Table    Availability    Fare Chart    Map    Arr/Dep History    Trips    Gallery    ΣChains    X/O    Timeline    
Travel Time: 7h 48m    22 halts    Distance: 316 km    Avg Speed: 40 km/hr
Type: Mail/Express
Zone: WR/Western
Departs @ 11:58 (Avg 23m late)
Platform# 2
SMTWTFS
Bharuch Junction/BH 
Arrives @ 19:46 (Avg 6m late)
Platform# 5
SMTWTFS
Mumbai Dadar Western/DDR 

22 halts. 65 intermediate Stations between Bharuch Junction and Mumbai Dadar Western

Show ALL intermediate Stations  Show Old Time-Table

#CodeStation NameX/OArrivesAvgDepartsAvgHaltPFDay#KmSpeedElevZoneAddress
1FZRFirozpur Cantt. Junction (5)  -05:10 05:05+1011-1450.777200mNRFirozpur Cantt 152001, Punjab
2FDKFaridkot (3)  05:34 05:30+1805:36 05:32+192m11-1418.548202mNRFaridkot, Punjab
3KKPKot Kapura Junction (3)  05:50 05:48+1805:52 05:50+182m11-1405.7750mNRKotkapura, Punjab
4GJUTGangsar Jaitu (3)  06:07 06:03+1806:09 06:05+182m11-1389.447207mNRJaitu, Punjab
5GNAGoneana Bhai Jagta (3)X  06:23+1606:25+172m11-1375.334206mNRGoniana, Punjab
6BTIBathinda Junction (6)  06:55 06:47+707:05 07:00+1010 13m21-1363.089208mNRBathinda, Punjab
7MAURMaur  07:31 07:24+2107:33 07:26+212m--1-1327.467220mNRMaur Mandi, Punjab
8KTKLKotli Kalan  07:39 07:35-07:41 07:36-2 1m--1-1317.327219mNRState Highway 12A, Punjab
9MSZMansa  07:54 07:55+1507:56 07:57+152m--1-1308.781222mNRMansa, Punjab
10BLZBudhlada  08:09+2008:11+212m--1-1292.671223mNRBudhlada, Punjab
11BRZBareta  08:24+2108:26+212m--1-1277.257223mNRBareta, Punjab
12JHLJakhal Junction  08:43 08:41+2008:45 08:43+212m--1-1263.056225mNRJakhal, Haryana
13TUNTohana (2)  08:56+2208:58+222m--1-1250.876232mNRTohana, Haryana
14NRWNarwana Junction (4)X  09:18+2409:20+242m--1-1225.370235mNRWay to Narwana, Haryana
15UCAUchana  09:33+2509:35+252m--1-1210.145225mNRDistrict Jind, Haryana
16JINDJind Junction (3)  10:00+1910:05+185m--1-1191.481222mNR126102., Haryana
17JNAJulana  10:27 10:24+2210:29 10:26+222m--1-1165.865226mNRJulana, Haryana
18ROKRohtak Junction (3)  11:05 10:55+1711:08 11:00+173 5m--1-1134.381220mNRRohtak, Haryana
19ISMIsmaila Haryana  11:26 11:14-11:28 11:16-2m--1-1115.542221mNRNational Highway 10, Haryana
20SPZSampla  11:32 11:21+2011:34 11:23+202m--1-1112.072222mNRSampla, Haryana
21BGZBahadurgarhX  11:49 11:38+2211:51 11:40+222m--1-1094.158220mNRBahadurgarh, Haryana
22NNONangloi  12:03 11:53+2412:05 11:55+262m--1-1081.628219mNRJJ Colony No 1, Delhi NCT
23MGLPMangolpuri  12:09 12:02-12:11 12:04-2m--1-1078.421217mNROutter Ring Rd, Delhi NCT
24SSBShakur BastiX  12:21 12:16+2112:23 12:18+212m--1-1074.132216mNRPitampura, Delhi NCT
25DKZDelhi KishanGanj (2)  12:36 12:31+2712:38 12:33+262m--1-1067.211220mNRSarai Rohilla, Delhi NCT
26NDLSNew Delhi (16)XO13:05 12:55+2413:35 13:25+2530m71-1063.325215mNRNew Delhi, Delhi NCT
27NZMDelhi Hazrat Nizamuddin (7)XO  13:49 13:43+3013:51 13:45+312m11-1055.932209mNRNew Delhi 110013, Delhi NCT
28OKAOkhla (4)  13:57 13:52+3213:59 13:53+322 1m--1-1052.260221mNRIshwar Nagar Mathura Road, Delhi NCT
29TKDTuglakabad (4)XO  14:06 13:59+3214:08 14:01+322m11-1046.244213mNRNear Tughlakabad Metro Station, Delhi NCT
30FDBFaridabad (4)  14:23 14:16+2514:25 14:18+292m31-1035.144206mNRold Faridabad, Haryana
31BVHBallabgarh (5)  14:43 14:29+2114:45 14:31+212m--1-1027.027203mNRFaridabad, Haryana
32PWLPalwal (8)O  15:18+515:20+62m--1-1005.985200mNRPalwal, Haryana
33KSVKosi Kalan (3)X  15:50+3115:52+332m21-963.447189mNCRKosi Kalan, Uttar Pradesh
34CHJChata (4)X  16:03 16:05+3516:05 16:07+382m--1-953.135 NCRChhata, Uttar Pradesh
35MTJMathura Junction (10)  17:00+1517:05+215m31-921.980179mNCRMathura, Uttar Pradesh
36BTEBharatpur Junction (5)O  17:30+2817:35+295m31-888.472174mWCRBharatpur, Rajasthan
37BXNBayana Junction (3)X  18:10+2518:15+255m--1-846.491198mWCRBayana, Rajasthan
38FSPFateh SinghpuraX  18:28+2718:30+322m--1-826.844223mWCRState Highway 1, Rajasthan
39HANHindaun City (2)  18:48+2618:50+342m--1-813.561230mWCRKarauli, Rajasthan
40SMBJShri Mahabirji (3)X  19:00+3419:02+342m--1-803.454240mWCRKarauli, Rajasthan
41GGCGangapur City (3)  19:50 19:40+2419:55 19:45+335m21-769.368270mWCRGangapur, Rajasthan
42NNWNarayanpur Tatwara (2)  20:11 20:00+3420:12 20:02+351 2m--1-752.363256mWCRSawai Madhopur, Rajasthan
43MLZMalarnaXO  20:40 20:18+2620:42 20:20+272m21-735.540236mWCRSawai Madhopur, Rajasthan
44SWMSawai Madhopur Junction (4)  21:05+2821:10+345m21-705.478266mWCRSawai Madhopur, Rajasthan
45IDGIndargarh Sumerganj Mandi (2)  21:35 21:38+3721:37 21:40+392m--1-669.166247mWCRIndargarh, Rajasthan
46LKELakheri (3)X  21:47 21:50+3921:49 21:52+432m--1-658.144228mWCRBundi, Rajasthan
47KOTAKota Junction (5)  23:10 23:15+5023:20+5510 5m21-597.568256mWCRKota, Rajasthan
48RMARamganj Mandi Junction (3)X  00:23+5400:25+572m--2-526.357358mWCRRamganj Mandi, Rajasthan
49JHWJhalawar Road (3)XO  00:38+5500:40+572m--2-513.930361mWCRJhalawar City, Rajasthan
50BWMBhawani Mandi (3)X  01:13+4101:15+472m--2-497.474384mWCRBhawani Mandi, Madhya Pradesh
51SGZShamgarh (3)  01:42+4601:47+495m--2-463.950463mWCRMandsaur, Madhya Pradesh
52SVASuwasra (2)O  02:03+4502:05+472m--2-450.540450mWCRSuwasra, Madhya Pradesh
53CMUChau Mahla (3)  02:28+3702:30+392m12-435.120426mWCRJhalawar, Rajasthan
54VMAVikramgarh Alot (2)X  03:36+703:38+82m12-413.340443mWCRKota Division, Madhya Pradesh
55MEPMahidpur Road  04:13 04:14+004:15+42 1m--2-389.441493mWCRGogapur, Madhya Pradesh
56NADNagda Junction (4)X  04:40+304:45+85m--2-372.464468mWRNagda, Madhya Pradesh
57KUHKhachrod (2)X  04:56 04:58+1204:58 05:00+122m--2-358.637497mWRUjjain, Madhya Pradesh
58RTMRatlam Junction (7)X  05:45+306:00+615m42-330.973495mWRRatlam, Madhya Pradesh
59BMIBamnia (2)X  06:35 06:37+1306:37 06:38+132 1m--2-286.272392mWRBamnia, Madhya Pradesh
60THDRThandla Road (2)  06:59 07:01+1507:01 07:02+142 1m--2-258.660317mWRJhabua, Madhya Pradesh
61MGNMeghnagar (3)  07:08 07:10+1507:10 07:12+152m--2-250.686317mWRJhabua, Madhya Pradesh
62DHDDahod (3)X  07:35+2107:40+225m--2-217.568313mWRDahod, Gujarat
63LMKLimkheda  08:07 08:09+2408:09 08:10+232 1m--2-184.660205mWRLimkheda, Gujarat
64PPDPiplod Junction  08:16 08:18+2408:18 08:19+232 1m--2-176.679209mWRPiplod, Gujarat
65SATSant Road (2)X  08:26 08:28+2608:28 08:29+252 1m22-164.820169mWROrwara, Gujarat
66GDAGodhra Junction (3)X  09:29 09:30+109:34 09:35+35m12-144.479122mWRGodhra, Gujarat
67DRLDerol  09:53+709:55+72m--2-120.87981mWRKalol, Gujarat
68SMLASamlaya Junction (3)  10:13+810:15+82m--2-97.15367mWRVadodara, Gujarat
69BRCVadodara Junction (7)X10:45+1510:55+1410m12-70.58936mWRVadodara 390005, Gujarat
70MYGMiyagam Karjan (2)  11:15+2311:17+232m22-40.78329mWRKarjan, Gujarat
71PLJPalej (4)  11:28+2311:30+242m--2-25.48029mWRPalej, Gujarat
72NIUNabipur (3)X  11:40+2911:42+292m--2-12.15224mWRNabipur, Gujarat
73BHBharuch Junction (5)»  11:56+2211:58+232m220.06219mWRBharuch, Gujarat
74AKVAnkleshwar Junction (4)O  12:07+2212:09+212m229.34819mWRAnkleshwar, Gujarat
75PAOPanoli (3)  12:22+2312:24+242m--219.66229mWRPanoli, Gujarat
76KSBKosamba Junction (3)XO  12:32+2412:34+232m2227.95830mWRKosamba, Gujarat
77KIMKim (2)O  12:42+2312:44+212m--235.73118mWRNH 8, Gujarat
78STSurat (4)X  13:30+1013:35+115m2259.37119mWRSurat 395001, Gujarat
79MRLMaroli (3)  13:53+2513:55+252m2280.44615mWRMaroli, Gujarat
80NVSNavsari (3)  14:06+2214:08+232m2288.95514mWRNavsari, Gujarat
81AMLAmalsad (3)O  14:25+2314:27+242m22104.53712mWRAmalsad, Gujarat
82BIMBilimora Junction (4)XO  14:36+2114:38+232m22110.13611mWRBilimora, Gujarat
83BLValsad (3)X  15:08+1715:10+202m32128.04915mWRValsad, Gujarat
84PADPardi (3)X  15:24 15:23+1915:26 15:25+182m--2138.74519mWRValsad, Gujarat
85UVDUdvada (3)  15:33+1715:35+182m--2144.65218mWRUdvada, Gujarat
86VAPIVapi (3)X  15:46+1515:48+202m22154.23427mWRVapi, Gujarat
87BLDBhilad (3)XO  16:08+1816:10+182m--2165.56933mWRBhilad, Gujarat
88SJNSanjan (3)XO  16:20+1816:22+172m--2177.15422mWRSanjan, Gujarat
89UBRUmbargam Road (3)X  16:28+1816:30+182m--2182.44730mWRUmbergaon, Gujarat
90DRDDahanu Road (5)XO  16:56+916:58+112m--2202.77412mWRDahanu, Maharashtra
91VGNVangaon (3)XO  17:08+1117:10+112m--2215.07111mWRDist. Palghar, Maharashtra
92BORBoisar (3)XO  17:18+817:20+82m32224.56117mWRBoisar Tel.no-02525-266626, Maharashtra
93PLGPalghar (3)XO  17:31+717:33+72m22235.75719mWRPalghar, Maharashtra
94VRVirar (8)XO  18:06+918:08+112m42266.9526mWRDist. Palghar, Maharashtra
95BVIMumbai Borivali (8)  18:38+718:40+82m52292.72219mWRMumbai - 400092, Maharashtra
96DDRMumbai Dadar Western (6)•  19:46+619:48+62m52316.4166mWRMumbai, Maharashtra
97BCTMumbai Central (9)  20:10+3-52322.4-3mWRMumbai 400008, Maharashtra
Scroll to Top
Scroll to Bottom